createdAt,value
2022-11-05T00:09:33.410Z,8.50
2022-11-05T00:24:56.200Z,8.56
2022-11-05T00:40:02.271Z,8.59
2022-11-05T00:55:08.705Z,8.55
2022-11-05T01:10:14.292Z,8.63
2022-11-05T01:25:20.046Z,8.66
2022-11-05T01:40:26.665Z,8.62
2022-11-05T01:55:35.616Z,8.70
2022-11-05T02:10:41.785Z,8.68
2022-11-05T02:26:19.523Z,8.73
2022-11-05T02:41:33.935Z,8.82
2022-11-05T02:56:43.180Z,8.78
2022-11-05T03:11:59.817Z,8.74
2022-11-05T03:27:10.505Z,8.71
2022-11-05T03:42:19.265Z,8.74
2022-11-05T03:57:28.486Z,8.77
2022-11-05T04:12:51.287Z,8.76
2022-11-05T04:28:01.421Z,8.70
2022-11-05T04:43:13.607Z,8.79
2022-11-05T04:58:21.037Z,8.77
2022-11-05T05:13:26.657Z,8.80
2022-11-05T05:28:32.329Z,8.86
2022-11-05T05:43:37.980Z,8.89
2022-11-05T05:58:43.843Z,8.92
2022-11-05T06:13:49.552Z,8.86
2022-11-05T06:28:55.243Z,8.85
2022-11-05T06:44:01.386Z,8.71
2022-11-05T06:59:08.842Z,8.70
2022-11-05T07:14:14.427Z,8.72
2022-11-05T07:29:20.228Z,8.70
2022-11-05T07:44:25.869Z,8.67
2022-11-05T07:59:31.550Z,8.85
2022-11-05T08:14:37.439Z,8.91
2022-11-05T08:29:43.002Z,9.31
2022-11-05T08:44:51.710Z,9.44
2022-11-05T08:59:57.988Z,9.38
2022-11-05T09:15:03.792Z,9.32
2022-11-05T09:30:11.944Z,9.53
2022-11-05T09:45:20.536Z,9.90
2022-11-05T10:00:26.441Z,10.38
2022-11-05T10:15:34.662Z,10.65
2022-11-05T10:30:40.524Z,10.39
2022-11-05T10:45:54.130Z,10.69
2022-11-05T11:01:09.662Z,10.71
2022-11-05T11:16:22.828Z,10.80
2022-11-05T11:31:31.114Z,11.32
2022-11-05T11:46:37.940Z,11.85
2022-11-05T12:02:15.453Z,11.90
2022-11-05T12:17:35.418Z,12.01
2022-11-05T12:33:03.957Z,12.27
2022-11-05T12:48:32.811Z,12.31
2022-11-05T13:03:45.942Z,12.35
2022-11-05T13:18:54.207Z,12.13
2022-11-05T13:34:02.182Z,11.73
2022-11-05T13:49:42.051Z,11.83
2022-11-05T14:04:51.159Z,11.48
2022-11-05T14:20:26.819Z,11.59
2022-11-05T14:35:40.621Z,11.45
2022-11-05T14:50:46.622Z,11.60
2022-11-05T15:06:21.424Z,11.53
2022-11-05T15:21:28.949Z,12.73
2022-11-05T15:36:34.723Z,10.93
2022-11-05T15:51:40.361Z,10.12
2022-11-05T16:06:48.557Z,9.53
2022-11-05T16:21:57.017Z,8.92
2022-11-05T16:37:02.898Z,8.35
2022-11-05T16:52:11.162Z,7.90
2022-11-05T17:07:17.135Z,7.42
2022-11-05T17:22:22.953Z,7.00
2022-11-05T17:37:28.892Z,6.73
2022-11-05T17:52:34.563Z,6.53
2022-11-05T18:07:40.711Z,6.17
2022-11-05T18:22:46.495Z,6.04
2022-11-05T18:37:53.240Z,6.10
2022-11-05T18:52:58.954Z,6.21
2022-11-05T19:08:05.209Z,6.49
2022-11-05T19:23:10.762Z,6.16
2022-11-05T19:38:16.359Z,5.83
2022-11-05T19:53:22.142Z,5.64
2022-11-05T20:08:27.893Z,5.41
2022-11-05T20:23:33.924Z,5.10
2022-11-05T20:38:39.640Z,5.19
2022-11-05T20:53:46.409Z,5.08
2022-11-05T21:08:52.821Z,4.83
2022-11-05T21:23:59.354Z,4.62
2022-11-05T21:39:10.456Z,4.78
2022-11-05T21:54:35.935Z,4.87
2022-11-05T22:09:42.067Z,5.02
2022-11-05T22:24:47.780Z,5.04
2022-11-05T22:39:53.544Z,5.02
2022-11-05T22:54:59.392Z,4.96
2022-11-05T23:10:22.738Z,4.95
2022-11-05T23:25:28.553Z,4.83
2022-11-05T23:40:55.671Z,4.82
2022-11-05T23:56:06.400Z,4.72
